Sugar Grove, Pennsylvania
Current Conditions -  °F | °C
As of 11:35 PM on Saturday 22 Nov 2014 (Local Time) from KJHW Reporting Station
Overcast Overcast  
Wind Chill: 32°   Ceiling: 3600
Heat Index: 39°   Visibility: 10mi
Dew Point: 34°   Wind: 10mph
Humidity: 81%   Direction: 210°SSW
Pressure: 30.03"   Gusts: NA
Location:  41.98°N, 79.34°W
Report Text: KJHW 230435Z AUTO 21009KT 10SM OVC036 04/01 A3003 RMK AO1
Loading
Personal Weather Stations






























Interactive Weather Map New forecast layout! Learn more

10-Day Weather Forecast

Advertisements
Track Severe Weather on mobile